sensor_id;sensor_type;location;lat;lon;timestamp;temperature;humidity
26479;DHT22;14163;-26.142;27.992;2023-02-28T03:48:45;19.70;99.90
26479;DHT22;14163;-26.142;27.992;2023-02-28T03:51:16;19.20;99.90
26479;DHT22;14163;-26.142;27.992;2023-02-28T03:53:46;19.80;99.90
26479;DHT22;14163;-26.142;27.992;2023-02-28T03:56:16;20.60;99.90
26479;DHT22;14163;-26.142;27.992;2023-02-28T03:58:47;21.30;99.90
26479;DHT22;14163;-26.142;27.992;2023-02-28T04:01:18;21.80;99.90
26479;DHT22;14163;-26.142;27.992;2023-02-28T06:04:17;20.40;99.90
26479;DHT22;14163;-26.142;27.992;2023-02-28T06:06:46;19.80;99.90
26479;DHT22;14163;-26.142;27.992;2023-02-28T06:09:15;20.60;99.90
26479;DHT22;14163;-26.142;27.992;2023-02-28T06:11:43;21.40;99.90
26479;DHT22;14163;-26.142;27.992;2023-02-28T06:14:13;22.20;99.90
26479;DHT22;14163;-26.142;27.992;2023-02-28T06:16:42;22.80;99.90
26479;DHT22;14163;-26.142;27.992;2023-02-28T06:19:11;23.30;99.90
26479;DHT22;14163;-26.142;27.992;2023-02-28T06:21:41;23.60;99.90
26479;DHT22;14163;-26.142;27.992;2023-02-28T06:24:10;23.90;99.90
26479;DHT22;14163;-26.142;27.992;2023-02-28T06:26:38;24.20;99.90
26479;DHT22;14163;-26.142;27.992;2023-02-28T06:29:06;24.30;99.90
26479;DHT22;14163;-26.142;27.992;2023-02-28T06:31:35;24.50;99.90
26479;DHT22;14163;-26.142;27.992;2023-02-28T06:34:04;24.70;99.90
26479;DHT22;14163;-26.142;27.992;2023-02-28T06:36:32;24.90;99.90
26479;DHT22;14163;-26.142;27.992;2023-02-28T06:39:03;25.00;99.90
26479;DHT22;14163;-26.142;27.992;2023-02-28T06:41:31;24.90;99.90
26479;DHT22;14163;-26.142;27.992;2023-02-28T06:44:04;24.70;99.90
26479;DHT22;14163;-26.142;27.992;2023-02-28T06:46:33;24.80;99.90
26479;DHT22;14163;-26.142;27.992;2023-02-28T06:49:01;24.80;99.90
26479;DHT22;14163;-26.142;27.992;2023-02-28T06:51:31;24.90;99.90
26479;DHT22;14163;-26.142;27.992;2023-02-28T06:53:59;25.10;99.90
26479;DHT22;14163;-26.142;27.992;2023-02-28T06:56:29;25.20;99.90
26479;DHT22;14163;-26.142;27.992;2023-02-28T06:58:57;25.20;99.90
26479;DHT22;14163;-26.142;27.992;2023-02-28T07:01:26;25.30;99.90
26479;DHT22;14163;-26.142;27.992;2023-02-28T07:03:54;25.30;99.90
26479;DHT22;14163;-26.142;27.992;2023-02-28T07:06:23;25.30;99.90
26479;DHT22;14163;-26.142;27.992;2023-02-28T07:08:51;25.50;99.90
26479;DHT22;14163;-26.142;27.992;2023-02-28T07:11:20;25.70;99.90
26479;DHT22;14163;-26.142;27.992;2023-02-28T07:13:50;25.80;99.90
26479;DHT22;14163;-26.142;27.992;2023-02-28T07:16:19;25.70;99.90
26479;DHT22;14163;-26.142;27.992;2023-02-28T07:18:47;25.70;99.90
26479;DHT22;14163;-26.142;27.992;2023-02-28T07:21:16;25.80;99.90
26479;DHT22;14163;-26.142;27.992;2023-02-28T07:23:44;25.40;99.90
26479;DHT22;14163;-26.142;27.992;2023-02-28T07:26:13;25.20;99.90
26479;DHT22;14163;-26.142;27.992;2023-02-28T07:28:43;25.00;99.90
26479;DHT22;14163;-26.142;27.992;2023-02-28T07:31:13;25.00;99.90
26479;DHT22;14163;-26.142;27.992;2023-02-28T07:33:42;25.00;99.90
26479;DHT22;14163;-26.142;27.992;2023-02-28T07:36:11;25.20;99.90
26479;DHT22;14163;-26.142;27.992;2023-02-28T07:38:41;25.30;99.90
26479;DHT22;14163;-26.142;27.992;2023-02-28T07:41:10;25.40;99.90
26479;DHT22;14163;-26.142;27.992;2023-02-28T07:43:38;25.40;99.90
26479;DHT22;14163;-26.142;27.992;2023-02-28T07:46:07;25.50;99.90
26479;DHT22;14163;-26.142;27.992;2023-02-28T07:48:38;25.70;99.90
26479;DHT22;14163;-26.142;27.992;2023-02-28T07:51:06;25.80;99.90
26479;DHT22;14163;-26.142;27.992;2023-02-28T07:53:34;25.90;99.90
26479;DHT22;14163;-26.142;27.992;2023-02-28T07:56:03;25.90;99.90
26479;DHT22;14163;-26.142;27.992;2023-02-28T07:58:31;26.00;99.90
26479;DHT22;14163;-26.142;27.992;2023-02-28T08:01:05;26.10;99.90
26479;DHT22;14163;-26.142;27.992;2023-02-28T08:03:33;26.00;99.90
26479;DHT22;14163;-26.142;27.992;2023-02-28T08:06:03;25.80;99.90
26479;DHT22;14163;-26.142;27.992;2023-02-28T08:08:32;25.90;99.90
26479;DHT22;14163;-26.142;27.992;2023-02-28T08:11:00;25.90;99.90
26479;DHT22;14163;-26.142;27.992;2023-02-28T08:13:29;25.80;99.90
26479;DHT22;14163;-26.142;27.992;2023-02-28T08:15:57;25.70;99.90
26479;DHT22;14163;-26.142;27.992;2023-02-28T08:18:26;25.80;99.90
26479;DHT22;14163;-26.142;27.992;2023-02-28T08:20:54;25.90;99.90
26479;DHT22;14163;-26.142;27.992;2023-02-28T08:23:25;25.90;99.90
26479;DHT22;14163;-26.142;27.992;2023-02-28T08:25:53;25.90;99.90
26479;DHT22;14163;-26.142;27.992;2023-02-28T08:28:22;26.00;99.90
26479;DHT22;14163;-26.142;27.992;2023-02-28T08:30:50;26.00;99.90
26479;DHT22;14163;-26.142;27.992;2023-02-28T08:33:19;26.00;99.90
26479;DHT22;14163;-26.142;27.992;2023-02-28T08:35:47;26.00;99.90
26479;DHT22;14163;-26.142;27.992;2023-02-28T08:38:16;26.00;99.90
26479;DHT22;14163;-26.142;27.992;2023-02-28T08:40:46;26.00;99.90
26479;DHT22;14163;-26.142;27.992;2023-02-28T08:43:14;26.10;99.90
26479;DHT22;14163;-26.142;27.992;2023-02-28T08:45:42;26.20;99.90
26479;DHT22;14163;-26.142;27.992;2023-02-28T08:48:11;26.20;99.90
26479;DHT22;14163;-26.142;27.992;2023-02-28T08:50:39;26.20;99.90
26479;DHT22;14163;-26.142;27.992;2023-02-28T08:53:07;26.20;99.90
26479;DHT22;14163;-26.142;27.992;2023-02-28T08:55:36;26.30;99.90
26479;DHT22;14163;-26.142;27.992;2023-02-28T08:58:06;26.30;99.90
26479;DHT22;14163;-26.142;27.992;2023-02-28T09:00:34;26.20;99.90
26479;DHT22;14163;-26.142;27.992;2023-02-28T09:03:03;26.30;99.90
26479;DHT22;14163;-26.142;27.992;2023-02-28T09:05:31;26.20;99.90
26479;DHT22;14163;-26.142;27.992;2023-02-28T09:07:59;26.30;99.90
26479;DHT22;14163;-26.142;27.992;2023-02-28T09:10:28;26.40;99.90
26479;DHT22;14163;-26.142;27.992;2023-02-28T09:12:56;26.30;99.90
26479;DHT22;14163;-26.142;27.992;2023-02-28T09:15:26;26.40;99.90
26479;DHT22;14163;-26.142;27.992;2023-02-28T09:17:55;26.50;99.90
26479;DHT22;14163;-26.142;27.992;2023-02-28T09:20:23;26.60;99.90
26479;DHT22;14163;-26.142;27.992;2023-02-28T09:22:51;26.40;99.90
26479;DHT22;14163;-26.142;27.992;2023-02-28T09:25:20;26.60;99.90
26479;DHT22;14163;-26.142;27.992;2023-02-28T09:27:48;26.70;99.90
26479;DHT22;14163;-26.142;27.992;2023-02-28T09:30:16;26.60;99.90
26479;DHT22;14163;-26.142;27.992;2023-02-28T09:32:47;26.80;99.90
26479;DHT22;14163;-26.142;27.992;2023-02-28T09:35:19;27.00;99.90
26479;DHT22;14163;-26.142;27.992;2023-02-28T09:37:49;27.10;99.90
26479;DHT22;14163;-26.142;27.992;2023-02-28T09:40:17;27.20;99.90
26479;DHT22;14163;-26.142;27.992;2023-02-28T09:42:46;27.20;99.90
26479;DHT22;14163;-26.142;27.992;2023-02-28T09:45:18;27.20;99.90
26479;DHT22;14163;-26.142;27.992;2023-02-28T09:47:49;27.20;99.90
26479;DHT22;14163;-26.142;27.992;2023-02-28T09:50:21;27.00;99.90
26479;DHT22;14163;-26.142;27.992;2023-02-28T09:52:50;27.10;99.90
26479;DHT22;14163;-26.142;27.992;2023-02-28T09:55:28;27.30;99.90
26479;DHT22;14163;-26.142;27.992;2023-02-28T09:57:57;27.30;99.90
26479;DHT22;14163;-26.142;27.992;2023-02-28T10:00:28;27.40;99.90
26479;DHT22;14163;-26.142;27.992;2023-02-28T10:03:11;27.40;99.90
26479;DHT22;14163;-26.142;27.992;2023-02-28T10:05:48;27.50;99.90
26479;DHT22;14163;-26.142;27.992;2023-02-28T10:08:19;27.70;99.90
26479;DHT22;14163;-26.142;27.992;2023-02-28T10:10:51;27.90;99.90
26479;DHT22;14163;-26.142;27.992;2023-02-28T10:13:23;28.00;99.90
26479;DHT22;14163;-26.142;27.992;2023-02-28T10:15:54;28.10;99.90
26479;DHT22;14163;-26.142;27.992;2023-02-28T10:18:25;28.20;99.90
26479;DHT22;14163;-26.142;27.992;2023-02-28T10:20:54;28.30;99.90
26479;DHT22;14163;-26.142;27.992;2023-02-28T10:23:24;28.40;99.90
26479;DHT22;14163;-26.142;27.992;2023-02-28T10:25:54;28.50;99.90
26479;DHT22;14163;-26.142;27.992;2023-02-28T10:28:24;28.50;99.90
26479;DHT22;14163;-26.142;27.992;2023-02-28T10:30:53;28.30;99.90
26479;DHT22;14163;-26.142;27.992;2023-02-28T10:33:27;28.30;99.90
26479;DHT22;14163;-26.142;27.992;2023-02-28T10:35:56;28.50;99.90
26479;DHT22;14163;-26.142;27.992;2023-02-28T10:38:25;28.70;99.90
26479;DHT22;14163;-26.142;27.992;2023-02-28T10:41:03;28.80;99.90
26479;DHT22;14163;-26.142;27.992;2023-02-28T10:43:31;28.80;99.90
26479;DHT22;14163;-26.142;27.992;2023-02-28T10:46:01;28.90;99.90
26479;DHT22;14163;-26.142;27.992;2023-02-28T10:48:35;28.70;99.90
26479;DHT22;14163;-26.142;27.992;2023-02-28T10:51:05;28.60;99.90
26479;DHT22;14163;-26.142;27.992;2023-02-28T10:53:35;28.40;99.90
26479;DHT22;14163;-26.142;27.992;2023-02-28T10:56:04;28.30;99.90
26479;DHT22;14163;-26.142;27.992;2023-02-28T10:58:42;28.60;99.90
26479;DHT22;14163;-26.142;27.992;2023-02-28T11:01:14;28.90;99.90
26479;DHT22;14163;-26.142;27.992;2023-02-28T11:03:44;29.00;99.90
26479;DHT22;14163;-26.142;27.992;2023-02-28T11:06:14;29.10;99.90
26479;DHT22;14163;-26.142;27.992;2023-02-28T11:08:44;29.20;99.90
26479;DHT22;14163;-26.142;27.992;2023-02-28T11:11:13;29.30;99.90
26479;DHT22;14163;-26.142;27.992;2023-02-28T11:13:42;29.30;99.90
26479;DHT22;14163;-26.142;27.992;2023-02-28T11:16:12;29.40;99.90
26479;DHT22;14163;-26.142;27.992;2023-02-28T11:18:41;29.70;99.90
26479;DHT22;14163;-26.142;27.992;2023-02-28T11:21:15;29.90;99.90
26479;DHT22;14163;-26.142;27.992;2023-02-28T11:23:44;30.20;99.90
26479;DHT22;14163;-26.142;27.992;2023-02-28T11:26:12;30.40;99.90
26479;DHT22;14163;-26.142;27.992;2023-02-28T11:28:41;30.60;99.90
26479;DHT22;14163;-26.142;27.992;2023-02-28T11:31:18;30.90;99.90
26479;DHT22;14163;-26.142;27.992;2023-02-28T11:33:48;31.00;99.90
26479;DHT22;14163;-26.142;27.992;2023-02-28T11:36:21;31.10;99.90
26479;DHT22;14163;-26.142;27.992;2023-02-28T11:38:55;31.00;99.90
26479;DHT22;14163;-26.142;27.992;2023-02-28T11:41:36;31.00;99.90
26479;DHT22;14163;-26.142;27.992;2023-02-28T11:44:13;31.00;99.90
26479;DHT22;14163;-26.142;27.992;2023-02-28T11:46:46;31.00;99.90
26479;DHT22;14163;-26.142;27.992;2023-02-28T11:49:19;30.90;99.90
26479;DHT22;14163;-26.142;27.992;2023-02-28T11:51:52;30.90;99.90
26479;DHT22;14163;-26.142;27.992;2023-02-28T11:54:28;30.90;99.90
26479;DHT22;14163;-26.142;27.992;2023-02-28T11:56:59;30.90;99.90
26479;DHT22;14163;-26.142;27.992;2023-02-28T11:59:37;30.80;99.90
26479;DHT22;14163;-26.142;27.992;2023-02-28T12:52:02;28.20;99.90
26479;DHT22;14163;-26.142;27.992;2023-02-28T12:54:32;28.00;99.90
26479;DHT22;14163;-26.142;27.992;2023-02-28T12:57:06;28.40;99.90
26479;DHT22;14163;-26.142;27.992;2023-02-28T12:59:39;28.70;99.90
26479;DHT22;14163;-26.142;27.992;2023-02-28T13:10:46;29.80;99.90
26479;DHT22;14163;-26.142;27.992;2023-02-28T13:13:16;29.80;99.90
26479;DHT22;14163;-26.142;27.992;2023-02-28T13:16:02;29.80;99.90
26479;DHT22;14163;-26.142;27.992;2023-02-28T13:18:32;29.70;99.90
26479;DHT22;14163;-26.142;27.992;2023-02-28T13:21:03;29.80;99.90
26479;DHT22;14163;-26.142;27.992;2023-02-28T13:23:40;29.90;99.90
26479;DHT22;14163;-26.142;27.992;2023-02-28T13:26:11;30.10;99.90
26479;DHT22;14163;-26.142;27.992;2023-02-28T13:34:20;29.90;99.90
26479;DHT22;14163;-26.142;27.992;2023-02-28T13:36:49;29.80;99.90
26479;DHT22;14163;-26.142;27.992;2023-02-28T13:47:35;29.80;99.90
26479;DHT22;14163;-26.142;27.992;2023-02-28T13:50:21;29.50;99.90
26479;DHT22;14163;-26.142;27.992;2023-02-28T13:52:53;29.70;99.90
26479;DHT22;14163;-26.142;27.992;2023-02-28T13:55:27;29.90;99.90
26479;DHT22;14163;-26.142;27.992;2023-02-28T13:58:04;30.20;99.90
26479;DHT22;14163;-26.142;27.992;2023-02-28T14:00:39;30.40;99.90
26479;DHT22;14163;-26.142;27.992;2023-02-28T14:03:19;30.70;99.90
26479;DHT22;14163;-26.142;27.992;2023-02-28T14:08:33;31.00;99.90
26479;DHT22;14163;-26.142;27.992;2023-02-28T14:11:02;31.30;99.90
26479;DHT22;14163;-26.142;27.992;2023-02-28T14:13:38;31.50;99.90
26479;DHT22;14163;-26.142;27.992;2023-02-28T14:16:10;31.50;99.90
26479;DHT22;14163;-26.142;27.992;2023-02-28T14:18:41;31.50;99.90
26479;DHT22;14163;-26.142;27.992;2023-02-28T14:21:13;31.50;99.90
26479;DHT22;14163;-26.142;27.992;2023-02-28T14:29:32;31.60;99.90
26479;DHT22;14163;-26.142;27.992;2023-02-28T14:32:02;31.60;99.90
26479;DHT22;14163;-26.142;27.992;2023-02-28T14:34:39;31.70;99.90
26479;DHT22;14163;-26.142;27.992;2023-02-28T14:37:13;31.60;99.80
26479;DHT22;14163;-26.142;27.992;2023-02-28T14:39:42;31.60;99.90
26479;DHT22;14163;-26.142;27.992;2023-02-28T14:42:25;31.40;99.60
26479;DHT22;14163;-26.142;27.992;2023-02-28T14:44:55;31.40;99.90
26479;DHT22;14163;-26.142;27.992;2023-02-28T14:47:24;31.30;99.90
26479;DHT22;14163;-26.142;27.992;2023-02-28T14:49:55;31.30;99.90
26479;DHT22;14163;-26.142;27.992;2023-02-28T14:52:24;31.10;99.90
26479;DHT22;14163;-26.142;27.992;2023-02-28T14:54:55;31.00;99.90
26479;DHT22;14163;-26.142;27.992;2023-02-28T14:57:25;30.80;99.90
26479;DHT22;14163;-26.142;27.992;2023-02-28T14:59:58;30.60;99.90
26479;DHT22;14163;-26.142;27.992;2023-02-28T15:02:29;30.40;99.90
26479;DHT22;14163;-26.142;27.992;2023-02-28T15:05:00;30.50;99.90
26479;DHT22;14163;-26.142;27.992;2023-02-28T15:07:29;30.20;99.90
26479;DHT22;14163;-26.142;27.992;2023-02-28T15:10:10;30.10;99.90
26479;DHT22;14163;-26.142;27.992;2023-02-28T15:12:39;29.80;99.90
26479;DHT22;14163;-26.142;27.992;2023-02-28T15:15:14;29.60;99.90
26479;DHT22;14163;-26.142;27.992;2023-02-28T15:17:43;29.50;99.90
26479;DHT22;14163;-26.142;27.992;2023-02-28T15:20:15;29.60;99.90
26479;DHT22;14163;-26.142;27.992;2023-02-28T15:22:44;29.80;99.90
26479;DHT22;14163;-26.142;27.992;2023-02-28T15:25:15;29.90;99.90
26479;DHT22;14163;-26.142;27.992;2023-02-28T15:27:46;30.10;99.90
26479;DHT22;14163;-26.142;27.992;2023-02-28T15:30:17;30.30;99.90
26479;DHT22;14163;-26.142;27.992;2023-02-28T15:33:01;30.50;99.90
26479;DHT22;14163;-26.142;27.992;2023-02-28T15:35:32;30.50;99.90
26479;DHT22;14163;-26.142;27.992;2023-02-28T15:38:01;30.40;99.90
26479;DHT22;14163;-26.142;27.992;2023-02-28T15:40:52;30.50;99.90
26479;DHT22;14163;-26.142;27.992;2023-02-28T15:43:24;30.50;99.90
26479;DHT22;14163;-26.142;27.992;2023-02-28T15:45:55;30.40;99.90
26479;DHT22;14163;-26.142;27.992;2023-02-28T15:48:24;30.30;99.90
26479;DHT22;14163;-26.142;27.992;2023-02-28T15:50:54;30.20;99.90
26479;DHT22;14163;-26.142;27.992;2023-02-28T15:53:23;30.20;99.90
26479;DHT22;14163;-26.142;27.992;2023-02-28T15:55:55;30.20;99.90
26479;DHT22;14163;-26.142;27.992;2023-02-28T15:58:24;30.10;99.90
26479;DHT22;14163;-26.142;27.992;2023-02-28T16:01:04;30.00;99.90
26479;DHT22;14163;-26.142;27.992;2023-02-28T16:03:38;30.00;99.90
26479;DHT22;14163;-26.142;27.992;2023-02-28T16:08:53;30.00;99.90
26479;DHT22;14163;-26.142;27.992;2023-02-28T16:11:23;30.00;99.90
26479;DHT22;14163;-26.142;27.992;2023-02-28T16:13:51;30.00;99.90
26479;DHT22;14163;-26.142;27.992;2023-02-28T16:16:21;29.90;99.90
26479;DHT22;14163;-26.142;27.992;2023-02-28T16:18:50;29.90;99.90
26479;DHT22;14163;-26.142;27.992;2023-02-28T16:21:18;29.60;99.90
26479;DHT22;14163;-26.142;27.992;2023-02-28T16:23:46;29.40;99.90
26479;DHT22;14163;-26.142;27.992;2023-02-28T16:26:18;29.40;99.90
26479;DHT22;14163;-26.142;27.992;2023-02-28T16:28:48;29.30;99.90
26479;DHT22;14163;-26.142;27.992;2023-02-28T16:31:17;29.40;99.90
26479;DHT22;14163;-26.142;27.992;2023-02-28T16:33:46;29.50;99.90
26479;DHT22;14163;-26.142;27.992;2023-02-28T16:36:15;29.60;99.90
26479;DHT22;14163;-26.142;27.992;2023-02-28T16:38:43;29.70;99.90
26479;DHT22;14163;-26.142;27.992;2023-02-28T16:41:12;29.80;99.90
26479;DHT22;14163;-26.142;27.992;2023-02-28T16:43:45;29.90;99.90
26479;DHT22;14163;-26.142;27.992;2023-02-28T16:46:15;30.00;99.90
26479;DHT22;14163;-26.142;27.992;2023-02-28T16:48:44;30.00;99.90
26479;DHT22;14163;-26.142;27.992;2023-02-28T16:51:14;30.00;99.90
26479;DHT22;14163;-26.142;27.992;2023-02-28T16:53:42;30.00;99.90
26479;DHT22;14163;-26.142;27.992;2023-02-28T16:56:14;30.00;99.90
26479;DHT22;14163;-26.142;27.992;2023-02-28T16:58:43;29.90;99.90
26479;DHT22;14163;-26.142;27.992;2023-02-28T17:01:11;29.80;99.90
26479;DHT22;14163;-26.142;27.992;2023-02-28T17:03:41;29.80;99.90
26479;DHT22;14163;-26.142;27.992;2023-02-28T17:06:16;29.80;99.90
26479;DHT22;14163;-26.142;27.992;2023-02-28T17:08:45;29.70;99.90
26479;DHT22;14163;-26.142;27.992;2023-02-28T17:11:13;29.80;99.90
26479;DHT22;14163;-26.142;27.992;2023-02-28T17:13:41;29.80;99.90
26479;DHT22;14163;-26.142;27.992;2023-02-28T17:16:20;29.60;99.90
26479;DHT22;14163;-26.142;27.992;2023-02-28T17:18:52;29.60;99.90
26479;DHT22;14163;-26.142;27.992;2023-02-28T17:21:26;29.60;99.90
26479;DHT22;14163;-26.142;27.992;2023-02-28T17:23:55;29.60;99.90
26479;DHT22;14163;-26.142;27.992;2023-02-28T17:26:23;29.50;99.90
26479;DHT22;14163;-26.142;27.992;2023-02-28T17:28:52;29.40;99.90
26479;DHT22;14163;-26.142;27.992;2023-02-28T17:31:21;29.40;99.90
26479;DHT22;14163;-26.142;27.992;2023-02-28T17:33:50;29.20;99.90
26479;DHT22;14163;-26.142;27.992;2023-02-28T17:36:21;29.10;99.90
26479;DHT22;14163;-26.142;27.992;2023-02-28T17:38:50;29.20;99.90
26479;DHT22;14163;-26.142;27.992;2023-02-28T17:41:19;29.20;99.90
26479;DHT22;14163;-26.142;27.992;2023-02-28T17:43:47;29.10;99.90
26479;DHT22;14163;-26.142;27.992;2023-02-28T17:46:17;29.10;99.90
26479;DHT22;14163;-26.142;27.992;2023-02-28T17:48:46;29.10;99.90
26479;DHT22;14163;-26.142;27.992;2023-02-28T17:51:14;29.10;99.90
26479;DHT22;14163;-26.142;27.992;2023-02-28T17:53:44;29.00;99.90
26479;DHT22;14163;-26.142;27.992;2023-02-28T17:56:13;29.00;99.90
26479;DHT22;14163;-26.142;27.992;2023-02-28T17:58:41;29.10;99.90
26479;DHT22;14163;-26.142;27.992;2023-02-28T18:01:10;29.00;99.90
26479;DHT22;14163;-26.142;27.992;2023-02-28T18:03:38;29.00;99.90
26479;DHT22;14163;-26.142;27.992;2023-02-28T18:06:07;28.90;99.90
26479;DHT22;14163;-26.142;27.992;2023-02-28T18:08:41;28.90;99.90
26479;DHT22;14163;-26.142;27.992;2023-02-28T18:11:11;28.80;99.90
26479;DHT22;14163;-26.142;27.992;2023-02-28T18:13:43;28.70;99.90
26479;DHT22;14163;-26.142;27.992;2023-02-28T18:16:13;28.60;99.90
26479;DHT22;14163;-26.142;27.992;2023-02-28T18:18:41;28.50;99.90
26479;DHT22;14163;-26.142;27.992;2023-02-28T18:21:10;28.50;99.90
26479;DHT22;14163;-26.142;27.992;2023-02-28T18:23:39;28.40;99.90
26479;DHT22;14163;-26.142;27.992;2023-02-28T18:26:15;28.40;99.90
26479;DHT22;14163;-26.142;27.992;2023-02-28T18:28:44;28.40;99.90
26479;DHT22;14163;-26.142;27.992;2023-02-28T18:31:16;28.30;99.90
26479;DHT22;14163;-26.142;27.992;2023-02-28T18:33:47;28.30;99.90
26479;DHT22;14163;-26.142;27.992;2023-02-28T18:36:16;28.30;99.90
26479;DHT22;14163;-26.142;27.992;2023-02-28T18:38:44;28.20;99.90
26479;DHT22;14163;-26.142;27.992;2023-02-28T18:41:14;28.20;99.90
26479;DHT22;14163;-26.142;27.992;2023-02-28T18:43:43;28.20;99.90
26479;DHT22;14163;-26.142;27.992;2023-02-28T18:46:12;28.20;99.90
26479;DHT22;14163;-26.142;27.992;2023-02-28T18:48:40;28.20;99.90
26479;DHT22;14163;-26.142;27.992;2023-02-28T18:51:09;28.10;99.90
26479;DHT22;14163;-26.142;27.992;2023-02-28T18:53:38;28.00;99.90
26479;DHT22;14163;-26.142;27.992;2023-02-28T18:56:07;27.90;99.90
26479;DHT22;14163;-26.142;27.992;2023-02-28T18:58:37;27.70;99.90
26479;DHT22;14163;-26.142;27.992;2023-02-28T19:01:12;27.60;99.90
26479;DHT22;14163;-26.142;27.992;2023-02-28T19:03:41;27.50;99.90
26479;DHT22;14163;-26.142;27.992;2023-02-28T19:06:10;27.50;99.90
26479;DHT22;14163;-26.142;27.992;2023-02-28T19:08:38;27.50;99.90
26479;DHT22;14163;-26.142;27.992;2023-02-28T19:11:07;27.50;99.90
26479;DHT22;14163;-26.142;27.992;2023-02-28T19:13:38;27.50;99.90
26479;DHT22;14163;-26.142;27.992;2023-02-28T19:16:07;27.50;99.90
26479;DHT22;14163;-26.142;27.992;2023-02-28T19:18:42;27.40;99.90
26479;DHT22;14163;-26.142;27.992;2023-02-28T19:21:11;27.50;99.90
26479;DHT22;14163;-26.142;27.992;2023-02-28T19:23:40;27.40;99.90
26479;DHT22;14163;-26.142;27.992;2023-02-28T19:26:09;27.40;99.90
26479;DHT22;14163;-26.142;27.992;2023-02-28T19:28:40;27.30;99.90
26479;DHT22;14163;-26.142;27.992;2023-02-28T19:31:10;27.20;99.90
26479;DHT22;14163;-26.142;27.992;2023-02-28T19:33:39;27.10;99.90
26479;DHT22;14163;-26.142;27.992;2023-02-28T19:36:08;27.00;99.90
26479;DHT22;14163;-26.142;27.992;2023-02-28T19:38:37;27.00;99.90
26479;DHT22;14163;-26.142;27.992;2023-02-28T19:41:06;27.00;99.90
26479;DHT22;14163;-26.142;27.992;2023-02-28T19:43:35;27.00;99.90
26479;DHT22;14163;-26.142;27.992;2023-02-28T19:46:05;26.90;99.90
26479;DHT22;14163;-26.142;27.992;2023-02-28T19:48:34;26.90;99.90
26479;DHT22;14163;-26.142;27.992;2023-02-28T19:51:03;26.90;99.90
26479;DHT22;14163;-26.142;27.992;2023-02-28T19:53:32;26.90;99.90
26479;DHT22;14163;-26.142;27.992;2023-02-28T19:56:01;26.90;99.90
26479;DHT22;14163;-26.142;27.992;2023-02-28T19:58:30;26.80;99.90
26479;DHT22;14163;-26.142;27.992;2023-02-28T22:05:24;23.20;99.90
26479;DHT22;14163;-26.142;27.992;2023-02-28T22:07:52;21.60;99.90
26479;DHT22;14163;-26.142;27.992;2023-02-28T22:10:21;22.30;99.90
26479;DHT22;14163;-26.142;27.992;2023-02-28T22:12:49;23.00;99.90
26479;DHT22;14163;-26.142;27.992;2023-02-28T22:15:18;23.80;99.90
26479;DHT22;14163;-26.142;27.992;2023-02-28T22:17:46;24.30;99.90
26479;DHT22;14163;-26.142;27.992;2023-02-28T22:20:15;24.80;99.90
26479;DHT22;14163;-26.142;27.992;2023-02-28T22:22:45;25.10;99.90
26479;DHT22;14163;-26.142;27.992;2023-02-28T22:25:13;25.30;99.90
26479;DHT22;14163;-26.142;27.992;2023-02-28T22:27:41;25.50;99.90
26479;DHT22;14163;-26.142;27.992;2023-02-28T22:30:10;25.60;99.90
26479;DHT22;14163;-26.142;27.992;2023-02-28T22:32:38;25.70;99.90
26479;DHT22;14163;-26.142;27.992;2023-02-28T22:35:07;25.80;99.90
26479;DHT22;14163;-26.142;27.992;2023-02-28T22:37:35;25.80;99.90
26479;DHT22;14163;-26.142;27.992;2023-02-28T22:40:06;25.80;99.90
26479;DHT22;14163;-26.142;27.992;2023-02-28T22:42:35;25.90;99.90
26479;DHT22;14163;-26.142;27.992;2023-02-28T22:45:03;25.90;99.90
26479;DHT22;14163;-26.142;27.992;2023-02-28T22:47:31;25.90;99.90
26479;DHT22;14163;-26.142;27.992;2023-02-28T22:50:00;25.80;99.90
26479;DHT22;14163;-26.142;27.992;2023-02-28T22:52:28;25.80;99.90
26479;DHT22;14163;-26.142;27.992;2023-02-28T22:54:56;25.70;99.90
26479;DHT22;14163;-26.142;27.992;2023-02-28T22:57:26;25.70;99.90
26479;DHT22;14163;-26.142;27.992;2023-02-28T22:59:55;25.60;99.90
26479;DHT22;14163;-26.142;27.992;2023-02-28T23:02:23;25.60;99.90
26479;DHT22;14163;-26.142;27.992;2023-02-28T23:04:53;25.50;99.90
26479;DHT22;14163;-26.142;27.992;2023-02-28T23:07:21;25.50;99.90
26479;DHT22;14163;-26.142;27.992;2023-02-28T23:09:50;25.50;99.90
26479;DHT22;14163;-26.142;27.992;2023-02-28T23:12:19;25.50;99.90
26479;DHT22;14163;-26.142;27.992;2023-02-28T23:14:49;25.50;99.90
26479;DHT22;14163;-26.142;27.992;2023-02-28T23:17:18;25.50;99.90
26479;DHT22;14163;-26.142;27.992;2023-02-28T23:19:46;25.50;99.90
26479;DHT22;14163;-26.142;27.992;2023-02-28T23:22:14;25.50;99.90
26479;DHT22;14163;-26.142;27.992;2023-02-28T23:24:42;25.50;99.90
26479;DHT22;14163;-26.142;27.992;2023-02-28T23:27:11;25.50;99.90
26479;DHT22;14163;-26.142;27.992;2023-02-28T23:29:39;25.40;99.90
26479;DHT22;14163;-26.142;27.992;2023-02-28T23:32:09;25.40;99.90
26479;DHT22;14163;-26.142;27.992;2023-02-28T23:34:38;25.30;99.90
26479;DHT22;14163;-26.142;27.992;2023-02-28T23:37:06;25.10;99.90
26479;DHT22;14163;-26.142;27.992;2023-02-28T23:39:34;25.10;99.90
26479;DHT22;14163;-26.142;27.992;2023-02-28T23:42:03;25.00;99.90
26479;DHT22;14163;-26.142;27.992;2023-02-28T23:44:31;25.00;99.90
26479;DHT22;14163;-26.142;27.992;2023-02-28T23:46:59;25.00;99.90
26479;DHT22;14163;-26.142;27.992;2023-02-28T23:49:29;24.90;99.90
26479;DHT22;14163;-26.142;27.992;2023-02-28T23:51:58;25.00;99.90
26479;DHT22;14163;-26.142;27.992;2023-02-28T23:54:26;25.00;99.90
26479;DHT22;14163;-26.142;27.992;2023-02-28T23:56:54;25.00;99.90
26479;DHT22;14163;-26.142;27.992;2023-02-28T23:59:23;24.90;99.90
